sensor_id;sensor_type;location;lat;lon;timestamp;P1;durP1;ratioP1;P2;durP2;ratioP2
10605;SDS011;5350;42.698;23.148;2023-07-20T00:01:33;5.75;;;2.03;;
10605;SDS011;5350;42.698;23.148;2023-07-20T00:04:00;8.55;;;2.35;;
10605;SDS011;5350;42.698;23.148;2023-07-20T00:06:26;6.93;;;2.42;;
10605;SDS011;5350;42.698;23.148;2023-07-20T00:08:53;5.13;;;2.05;;
10605;SDS011;5350;42.698;23.148;2023-07-20T00:11:25;6.65;;;2.45;;
10605;SDS011;5350;42.698;23.148;2023-07-20T00:13:53;7.90;;;2.15;;
10605;SDS011;5350;42.698;23.148;2023-07-20T00:16:19;5.72;;;2.00;;
10605;SDS011;5350;42.698;23.148;2023-07-20T00:18:46;5.28;;;2.40;;
10605;SDS011;5350;42.698;23.148;2023-07-20T00:21:13;6.22;;;2.65;;
10605;SDS011;5350;42.698;23.148;2023-07-20T00:23:40;5.07;;;2.20;;
10605;SDS011;5350;42.698;23.148;2023-07-20T00:26:06;6.95;;;2.22;;
10605;SDS011;5350;42.698;23.148;2023-07-20T00:28:34;5.25;;;2.05;;
10605;SDS011;5350;42.698;23.148;2023-07-20T00:31:01;6.15;;;2.38;;
10605;SDS011;5350;42.698;23.148;2023-07-20T00:33:28;8.20;;;2.22;;
10605;SDS011;5350;42.698;23.148;2023-07-20T00:35:55;6.35;;;2.42;;
10605;SDS011;5350;42.698;23.148;2023-07-20T00:38:21;6.03;;;2.10;;
10605;SDS011;5350;42.698;23.148;2023-07-20T00:40:48;6.03;;;2.42;;
10605;SDS011;5350;42.698;23.148;2023-07-20T00:43:15;5.72;;;2.50;;
10605;SDS011;5350;42.698;23.148;2023-07-20T00:45:43;5.40;;;2.08;;
10605;SDS011;5350;42.698;23.148;2023-07-20T00:48:11;7.95;;;2.30;;
10605;SDS011;5350;42.698;23.148;2023-07-20T00:50:39;6.82;;;2.38;;
10605;SDS011;5350;42.698;23.148;2023-07-20T00:53:06;5.18;;;2.60;;
10605;SDS011;5350;42.698;23.148;2023-07-20T00:55:34;8.35;;;2.53;;
10605;SDS011;5350;42.698;23.148;2023-07-20T00:58:01;5.95;;;2.30;;
10605;SDS011;5350;42.698;23.148;2023-07-20T01:00:27;8.48;;;2.80;;
10605;SDS011;5350;42.698;23.148;2023-07-20T01:02:55;5.68;;;2.05;;
10605;SDS011;5350;42.698;23.148;2023-07-20T01:05:24;8.68;;;2.88;;
10605;SDS011;5350;42.698;23.148;2023-07-20T01:08:01;8.85;;;2.67;;
10605;SDS011;5350;42.698;23.148;2023-07-20T01:10:36;4.10;;;2.15;;
10605;SDS011;5350;42.698;23.148;2023-07-20T01:13:06;5.82;;;2.28;;
10605;SDS011;5350;42.698;23.148;2023-07-20T01:15:35;6.65;;;2.47;;
10605;SDS011;5350;42.698;23.148;2023-07-20T01:18:03;9.40;;;2.67;;
10605;SDS011;5350;42.698;23.148;2023-07-20T01:20:31;9.10;;;2.53;;
10605;SDS011;5350;42.698;23.148;2023-07-20T01:26:02;5.03;;;2.22;;
10605;SDS011;5350;42.698;23.148;2023-07-20T01:28:49;4.28;;;2.42;;
10605;SDS011;5350;42.698;23.148;2023-07-20T01:31:36;5.93;;;2.47;;
10605;SDS011;5350;42.698;23.148;2023-07-20T01:34:05;9.93;;;2.30;;
10605;SDS011;5350;42.698;23.148;2023-07-20T01:36:35;5.25;;;2.42;;
10605;SDS011;5350;42.698;23.148;2023-07-20T01:39:03;8.43;;;2.95;;
10605;SDS011;5350;42.698;23.148;2023-07-20T01:41:32;6.88;;;2.83;;
10605;SDS011;5350;42.698;23.148;2023-07-20T01:44:00;9.05;;;2.88;;
10605;SDS011;5350;42.698;23.148;2023-07-20T01:46:27;8.45;;;3.03;;
10605;SDS011;5350;42.698;23.148;2023-07-20T01:48:55;8.18;;;2.97;;
10605;SDS011;5350;42.698;23.148;2023-07-20T01:51:22;5.05;;;2.90;;
10605;SDS011;5350;42.698;23.148;2023-07-20T01:53:49;5.15;;;2.70;;
10605;SDS011;5350;42.698;23.148;2023-07-20T01:56:16;5.80;;;2.50;;
10605;SDS011;5350;42.698;23.148;2023-07-20T01:58:42;7.55;;;2.72;;
10605;SDS011;5350;42.698;23.148;2023-07-20T02:01:09;5.55;;;2.60;;
10605;SDS011;5350;42.698;23.148;2023-07-20T02:03:36;3.75;;;2.65;;
10605;SDS011;5350;42.698;23.148;2023-07-20T02:06:04;7.32;;;2.92;;
10605;SDS011;5350;42.698;23.148;2023-07-20T02:08:31;9.30;;;2.53;;
10605;SDS011;5350;42.698;23.148;2023-07-20T02:10:57;8.30;;;2.88;;
10605;SDS011;5350;42.698;23.148;2023-07-20T02:13:24;6.50;;;2.88;;
10605;SDS011;5350;42.698;23.148;2023-07-20T02:15:51;8.65;;;3.10;;
10605;SDS011;5350;42.698;23.148;2023-07-20T02:18:17;6.55;;;2.83;;
10605;SDS011;5350;42.698;23.148;2023-07-20T02:20:44;6.30;;;2.75;;
10605;SDS011;5350;42.698;23.148;2023-07-20T02:23:12;10.00;;;2.85;;
10605;SDS011;5350;42.698;23.148;2023-07-20T02:25:39;9.73;;;3.38;;
10605;SDS011;5350;42.698;23.148;2023-07-20T02:28:07;4.88;;;2.88;;
10605;SDS011;5350;42.698;23.148;2023-07-20T02:30:34;5.80;;;2.90;;
10605;SDS011;5350;42.698;23.148;2023-07-20T02:33:04;9.00;;;3.08;;
10605;SDS011;5350;42.698;23.148;2023-07-20T02:35:31;4.07;;;2.60;;
10605;SDS011;5350;42.698;23.148;2023-07-20T02:37:58;7.70;;;2.92;;
10605;SDS011;5350;42.698;23.148;2023-07-20T02:40:26;5.03;;;2.67;;
10605;SDS011;5350;42.698;23.148;2023-07-20T02:42:53;8.07;;;3.15;;
10605;SDS011;5350;42.698;23.148;2023-07-20T02:45:19;6.43;;;2.78;;
10605;SDS011;5350;42.698;23.148;2023-07-20T02:47:46;3.33;;;2.20;;
10605;SDS011;5350;42.698;23.148;2023-07-20T02:50:13;6.03;;;3.00;;
10605;SDS011;5350;42.698;23.148;2023-07-20T02:52:39;10.77;;;3.10;;
10605;SDS011;5350;42.698;23.148;2023-07-20T02:55:06;7.78;;;2.95;;
10605;SDS011;5350;42.698;23.148;2023-07-20T02:57:35;7.35;;;3.05;;
10605;SDS011;5350;42.698;23.148;2023-07-20T03:00:02;4.78;;;2.58;;
10605;SDS011;5350;42.698;23.148;2023-07-20T03:02:30;4.45;;;2.75;;
10605;SDS011;5350;42.698;23.148;2023-07-20T03:04:57;5.38;;;2.58;;
10605;SDS011;5350;42.698;23.148;2023-07-20T03:07:27;7.45;;;3.00;;
10605;SDS011;5350;42.698;23.148;2023-07-20T03:09:54;4.40;;;3.13;;
10605;SDS011;5350;42.698;23.148;2023-07-20T03:12:21;4.40;;;3.03;;
10605;SDS011;5350;42.698;23.148;2023-07-20T03:14:50;8.73;;;3.03;;
10605;SDS011;5350;42.698;23.148;2023-07-20T03:17:17;8.65;;;2.63;;
10605;SDS011;5350;42.698;23.148;2023-07-20T03:19:45;6.63;;;2.75;;
10605;SDS011;5350;42.698;23.148;2023-07-20T03:22:12;7.35;;;3.25;;
10605;SDS011;5350;42.698;23.148;2023-07-20T03:24:39;8.93;;;3.22;;
10605;SDS011;5350;42.698;23.148;2023-07-20T03:27:06;6.93;;;3.60;;
10605;SDS011;5350;42.698;23.148;2023-07-20T03:29:32;4.63;;;2.95;;
10605;SDS011;5350;42.698;23.148;2023-07-20T03:32:01;7.93;;;3.25;;
10605;SDS011;5350;42.698;23.148;2023-07-20T03:34:28;6.60;;;2.72;;
10605;SDS011;5350;42.698;23.148;2023-07-20T03:36:54;8.00;;;2.83;;
10605;SDS011;5350;42.698;23.148;2023-07-20T03:39:22;8.50;;;3.17;;
10605;SDS011;5350;42.698;23.148;2023-07-20T03:41:48;4.70;;;2.85;;
10605;SDS011;5350;42.698;23.148;2023-07-20T03:44:15;17.15;;;3.28;;
10605;SDS011;5350;42.698;23.148;2023-07-20T03:46:42;12.65;;;3.30;;
10605;SDS011;5350;42.698;23.148;2023-07-20T03:49:10;11.57;;;3.42;;
10605;SDS011;5350;42.698;23.148;2023-07-20T03:51:36;8.52;;;3.40;;
10605;SDS011;5350;42.698;23.148;2023-07-20T03:54:03;9.30;;;3.55;;
10605;SDS011;5350;42.698;23.148;2023-07-20T03:56:30;8.18;;;3.05;;
10605;SDS011;5350;42.698;23.148;2023-07-20T03:58:59;5.43;;;2.80;;
10605;SDS011;5350;42.698;23.148;2023-07-20T04:01:26;10.10;;;3.17;;
10605;SDS011;5350;42.698;23.148;2023-07-20T04:03:52;13.35;;;3.33;;
10605;SDS011;5350;42.698;23.148;2023-07-20T04:06:20;7.13;;;2.63;;
10605;SDS011;5350;42.698;23.148;2023-07-20T04:08:47;9.68;;;3.08;;
10605;SDS011;5350;42.698;23.148;2023-07-20T04:11:14;8.88;;;3.00;;
10605;SDS011;5350;42.698;23.148;2023-07-20T04:13:41;7.93;;;3.00;;
10605;SDS011;5350;42.698;23.148;2023-07-20T04:16:07;7.75;;;3.08;;
10605;SDS011;5350;42.698;23.148;2023-07-20T04:18:34;10.73;;;3.45;;
10605;SDS011;5350;42.698;23.148;2023-07-20T04:21:01;8.55;;;2.90;;
10605;SDS011;5350;42.698;23.148;2023-07-20T04:23:29;7.45;;;3.05;;
10605;SDS011;5350;42.698;23.148;2023-07-20T04:25:56;7.05;;;2.95;;
10605;SDS011;5350;42.698;23.148;2023-07-20T04:28:22;6.72;;;3.00;;
10605;SDS011;5350;42.698;23.148;2023-07-20T04:30:49;6.40;;;2.83;;
10605;SDS011;5350;42.698;23.148;2023-07-20T04:33:16;7.97;;;3.05;;
10605;SDS011;5350;42.698;23.148;2023-07-20T04:35:47;9.63;;;3.28;;
10605;SDS011;5350;42.698;23.148;2023-07-20T04:38:15;7.55;;;2.88;;
10605;SDS011;5350;42.698;23.148;2023-07-20T04:40:44;5.32;;;2.42;;
10605;SDS011;5350;42.698;23.148;2023-07-20T04:43:11;6.10;;;3.08;;
10605;SDS011;5350;42.698;23.148;2023-07-20T04:45:38;7.47;;;3.20;;
10605;SDS011;5350;42.698;23.148;2023-07-20T04:48:06;10.60;;;3.10;;
10605;SDS011;5350;42.698;23.148;2023-07-20T04:50:36;9.18;;;3.30;;
10605;SDS011;5350;42.698;23.148;2023-07-20T04:53:03;5.30;;;2.70;;
10605;SDS011;5350;42.698;23.148;2023-07-20T04:55:30;8.38;;;3.28;;
10605;SDS011;5350;42.698;23.148;2023-07-20T04:58:00;8.23;;;3.15;;
10605;SDS011;5350;42.698;23.148;2023-07-20T05:00:27;8.15;;;3.20;;
10605;SDS011;5350;42.698;23.148;2023-07-20T05:02:53;6.70;;;3.13;;
10605;SDS011;5350;42.698;23.148;2023-07-20T05:05:20;11.18;;;3.45;;
10605;SDS011;5350;42.698;23.148;2023-07-20T05:07:47;7.22;;;2.92;;
10605;SDS011;5350;42.698;23.148;2023-07-20T05:10:14;13.00;;;3.22;;
10605;SDS011;5350;42.698;23.148;2023-07-20T05:12:40;6.95;;;3.15;;
10605;SDS011;5350;42.698;23.148;2023-07-20T05:15:09;6.72;;;2.88;;
10605;SDS011;5350;42.698;23.148;2023-07-20T05:17:36;10.55;;;3.10;;
10605;SDS011;5350;42.698;23.148;2023-07-20T05:20:03;6.85;;;3.00;;
10605;SDS011;5350;42.698;23.148;2023-07-20T05:22:30;7.65;;;3.20;;
10605;SDS011;5350;42.698;23.148;2023-07-20T05:24:57;5.55;;;3.20;;
10605;SDS011;5350;42.698;23.148;2023-07-20T05:27:24;6.28;;;3.10;;
10605;SDS011;5350;42.698;23.148;2023-07-20T05:29:50;8.40;;;3.40;;
10605;SDS011;5350;42.698;23.148;2023-07-20T05:32:19;9.32;;;3.67;;
10605;SDS011;5350;42.698;23.148;2023-07-20T05:34:45;8.82;;;3.28;;
10605;SDS011;5350;42.698;23.148;2023-07-20T05:37:12;10.85;;;3.63;;
10605;SDS011;5350;42.698;23.148;2023-07-20T05:39:39;8.65;;;3.45;;
10605;SDS011;5350;42.698;23.148;2023-07-20T05:42:06;12.48;;;4.50;;
10605;SDS011;5350;42.698;23.148;2023-07-20T05:44:32;6.60;;;2.90;;
10605;SDS011;5350;42.698;23.148;2023-07-20T05:46:59;9.30;;;3.05;;
10605;SDS011;5350;42.698;23.148;2023-07-20T05:49:29;7.63;;;3.25;;
10605;SDS011;5350;42.698;23.148;2023-07-20T05:51:56;6.45;;;3.03;;
10605;SDS011;5350;42.698;23.148;2023-07-20T05:54:23;8.40;;;3.65;;
10605;SDS011;5350;42.698;23.148;2023-07-20T05:56:50;7.50;;;3.17;;
10605;SDS011;5350;42.698;23.148;2023-07-20T05:59:17;8.15;;;3.35;;
10605;SDS011;5350;42.698;23.148;2023-07-20T06:01:44;10.63;;;3.63;;
10605;SDS011;5350;42.698;23.148;2023-07-20T06:04:12;8.40;;;3.63;;
10605;SDS011;5350;42.698;23.148;2023-07-20T06:06:40;9.02;;;3.60;;
10605;SDS011;5350;42.698;23.148;2023-07-20T06:09:07;14.57;;;3.63;;
10605;SDS011;5350;42.698;23.148;2023-07-20T06:11:37;8.77;;;3.97;;
10605;SDS011;5350;42.698;23.148;2023-07-20T06:14:03;8.98;;;3.40;;
10605;SDS011;5350;42.698;23.148;2023-07-20T06:16:30;7.85;;;3.83;;
10605;SDS011;5350;42.698;23.148;2023-07-20T06:18:58;11.13;;;3.47;;
10605;SDS011;5350;42.698;23.148;2023-07-20T06:21:25;7.75;;;3.50;;
10605;SDS011;5350;42.698;23.148;2023-07-20T06:23:54;7.97;;;3.17;;
10605;SDS011;5350;42.698;23.148;2023-07-20T06:26:20;5.70;;;3.28;;
10605;SDS011;5350;42.698;23.148;2023-07-20T06:28:47;9.00;;;3.63;;
10605;SDS011;5350;42.698;23.148;2023-07-20T06:31:14;10.50;;;3.55;;
10605;SDS011;5350;42.698;23.148;2023-07-20T06:33:40;9.77;;;3.40;;
10605;SDS011;5350;42.698;23.148;2023-07-20T06:36:07;12.40;;;3.90;;
10605;SDS011;5350;42.698;23.148;2023-07-20T06:38:34;7.85;;;3.50;;
10605;SDS011;5350;42.698;23.148;2023-07-20T06:41:02;12.68;;;3.25;;
10605;SDS011;5350;42.698;23.148;2023-07-20T06:43:29;7.97;;;3.67;;
10605;SDS011;5350;42.698;23.148;2023-07-20T06:45:56;6.93;;;3.33;;
10605;SDS011;5350;42.698;23.148;2023-07-20T06:48:22;7.93;;;3.78;;
10605;SDS011;5350;42.698;23.148;2023-07-20T06:50:49;8.57;;;3.47;;
10605;SDS011;5350;42.698;23.148;2023-07-20T06:53:16;7.45;;;2.90;;
10605;SDS011;5350;42.698;23.148;2023-07-20T06:55:43;8.35;;;3.20;;
10605;SDS011;5350;42.698;23.148;2023-07-20T06:58:11;9.90;;;3.22;;
10605;SDS011;5350;42.698;23.148;2023-07-20T07:00:38;9.55;;;3.05;;
10605;SDS011;5350;42.698;23.148;2023-07-20T07:03:05;10.48;;;3.33;;
10605;SDS011;5350;42.698;23.148;2023-07-20T07:05:35;10.15;;;3.33;;
10605;SDS011;5350;42.698;23.148;2023-07-20T07:08:03;8.60;;;3.20;;
10605;SDS011;5350;42.698;23.148;2023-07-20T07:10:30;11.32;;;3.35;;
10605;SDS011;5350;42.698;23.148;2023-07-20T07:12:57;10.63;;;3.60;;
10605;SDS011;5350;42.698;23.148;2023-07-20T07:15:25;9.95;;;3.85;;
10605;SDS011;5350;42.698;23.148;2023-07-20T07:17:52;10.35;;;3.50;;
10605;SDS011;5350;42.698;23.148;2023-07-20T07:20:19;12.55;;;3.45;;
10605;SDS011;5350;42.698;23.148;2023-07-20T07:22:46;9.68;;;3.40;;
10605;SDS011;5350;42.698;23.148;2023-07-20T07:25:13;12.15;;;3.63;;
10605;SDS011;5350;42.698;23.148;2023-07-20T07:27:40;11.65;;;3.00;;
10605;SDS011;5350;42.698;23.148;2023-07-20T07:30:08;7.13;;;3.25;;
10605;SDS011;5350;42.698;23.148;2023-07-20T07:32:37;5.78;;;3.22;;
10605;SDS011;5350;42.698;23.148;2023-07-20T07:35:04;8.35;;;3.63;;
10605;SDS011;5350;42.698;23.148;2023-07-20T07:37:31;5.95;;;3.22;;
10605;SDS011;5350;42.698;23.148;2023-07-20T07:39:58;5.80;;;3.00;;
10605;SDS011;5350;42.698;23.148;2023-07-20T07:42:25;6.70;;;3.47;;
10605;SDS011;5350;42.698;23.148;2023-07-20T07:44:51;6.50;;;3.20;;
10605;SDS011;5350;42.698;23.148;2023-07-20T07:47:18;13.18;;;3.60;;
10605;SDS011;5350;42.698;23.148;2023-07-20T07:49:46;9.05;;;3.15;;
10605;SDS011;5350;42.698;23.148;2023-07-20T07:52:13;6.50;;;2.83;;
10605;SDS011;5350;42.698;23.148;2023-07-20T07:54:40;8.77;;;3.00;;
10605;SDS011;5350;42.698;23.148;2023-07-20T07:57:06;8.63;;;3.42;;
10605;SDS011;5350;42.698;23.148;2023-07-20T07:59:33;11.65;;;2.95;;
10605;SDS011;5350;42.698;23.148;2023-07-20T08:02:01;6.47;;;2.28;;
10605;SDS011;5350;42.698;23.148;2023-07-20T08:04:28;6.93;;;2.53;;
10605;SDS011;5350;42.698;23.148;2023-07-20T08:06:56;7.53;;;2.22;;
10605;SDS011;5350;42.698;23.148;2023-07-20T08:09:24;6.95;;;2.17;;
10605;SDS011;5350;42.698;23.148;2023-07-20T08:11:50;6.63;;;2.25;;
10605;SDS011;5350;42.698;23.148;2023-07-20T08:14:17;6.45;;;1.90;;
10605;SDS011;5350;42.698;23.148;2023-07-20T08:16:44;7.80;;;2.25;;
10605;SDS011;5350;42.698;23.148;2023-07-20T08:19:12;4.93;;;1.80;;
10605;SDS011;5350;42.698;23.148;2023-07-20T08:21:39;4.97;;;1.85;;
10605;SDS011;5350;42.698;23.148;2023-07-20T08:24:07;4.95;;;1.73;;
10605;SDS011;5350;42.698;23.148;2023-07-20T08:26:34;4.38;;;1.85;;
10605;SDS011;5350;42.698;23.148;2023-07-20T08:29:00;6.78;;;1.95;;
10605;SDS011;5350;42.698;23.148;2023-07-20T08:31:27;5.45;;;1.80;;
10605;SDS011;5350;42.698;23.148;2023-07-20T08:33:54;9.23;;;1.90;;
10605;SDS011;5350;42.698;23.148;2023-07-20T08:36:22;6.15;;;1.73;;
10605;SDS011;5350;42.698;23.148;2023-07-20T08:38:48;7.50;;;2.05;;
10605;SDS011;5350;42.698;23.148;2023-07-20T08:41:17;6.32;;;2.08;;
10605;SDS011;5350;42.698;23.148;2023-07-20T08:43:45;8.98;;;2.20;;
10605;SDS011;5350;42.698;23.148;2023-07-20T08:46:13;6.63;;;1.63;;
10605;SDS011;5350;42.698;23.148;2023-07-20T08:48:42;5.15;;;1.85;;
10605;SDS011;5350;42.698;23.148;2023-07-20T08:51:09;8.70;;;2.13;;
10605;SDS011;5350;42.698;23.148;2023-07-20T08:53:38;5.85;;;1.70;;
10605;SDS011;5350;42.698;23.148;2023-07-20T08:56:05;7.55;;;1.70;;
10605;SDS011;5350;42.698;23.148;2023-07-20T08:58:34;5.88;;;1.42;;
10605;SDS011;5350;42.698;23.148;2023-07-20T09:01:02;7.05;;;1.95;;
10605;SDS011;5350;42.698;23.148;2023-07-20T09:03:29;6.07;;;1.83;;
10605;SDS011;5350;42.698;23.148;2023-07-20T09:05:56;7.30;;;1.77;;
10605;SDS011;5350;42.698;23.148;2023-07-20T09:08:23;6.10;;;1.80;;
10605;SDS011;5350;42.698;23.148;2023-07-20T09:10:50;8.00;;;2.03;;
10605;SDS011;5350;42.698;23.148;2023-07-20T09:13:16;7.28;;;1.83;;
10605;SDS011;5350;42.698;23.148;2023-07-20T09:15:47;8.13;;;2.20;;
10605;SDS011;5350;42.698;23.148;2023-07-20T09:18:26;4.25;;;1.45;;
10605;SDS011;5350;42.698;23.148;2023-07-20T09:20:57;5.93;;;2.10;;
10605;SDS011;5350;42.698;23.148;2023-07-20T09:23:29;4.50;;;1.95;;
10605;SDS011;5350;42.698;23.148;2023-07-20T09:25:57;4.93;;;1.65;;
10605;SDS011;5350;42.698;23.148;2023-07-20T09:28:24;3.08;;;1.40;;
10605;SDS011;5350;42.698;23.148;2023-07-20T09:30:52;6.00;;;1.98;;
10605;SDS011;5350;42.698;23.148;2023-07-20T09:33:22;6.53;;;1.70;;
10605;SDS011;5350;42.698;23.148;2023-07-20T09:35:49;6.07;;;2.00;;
10605;SDS011;5350;42.698;23.148;2023-07-20T09:38:15;6.15;;;2.05;;
10605;SDS011;5350;42.698;23.148;2023-07-20T09:40:42;2.95;;;1.58;;
10605;SDS011;5350;42.698;23.148;2023-07-20T09:43:09;5.70;;;1.80;;
10605;SDS011;5350;42.698;23.148;2023-07-20T09:45:39;6.43;;;1.70;;
10605;SDS011;5350;42.698;23.148;2023-07-20T09:48:08;5.30;;;1.55;;
10605;SDS011;5350;42.698;23.148;2023-07-20T09:50:39;4.72;;;1.50;;
10605;SDS011;5350;42.698;23.148;2023-07-20T09:53:07;6.13;;;1.98;;
10605;SDS011;5350;42.698;23.148;2023-07-20T09:55:38;7.95;;;1.70;;
10605;SDS011;5350;42.698;23.148;2023-07-20T09:58:06;5.22;;;1.50;;
10605;SDS011;5350;42.698;23.148;2023-07-20T10:00:35;8.13;;;1.50;;
10605;SDS011;5350;42.698;23.148;2023-07-20T10:03:03;5.18;;;1.48;;
10605;SDS011;5350;42.698;23.148;2023-07-20T10:05:33;6.47;;;2.03;;
10605;SDS011;5350;42.698;23.148;2023-07-20T10:08:02;5.93;;;1.70;;
10605;SDS011;5350;42.698;23.148;2023-07-20T10:10:31;5.30;;;1.70;;
10605;SDS011;5350;42.698;23.148;2023-07-20T10:13:00;4.55;;;1.45;;
10605;SDS011;5350;42.698;23.148;2023-07-20T10:15:28;5.15;;;1.70;;
10605;SDS011;5350;42.698;23.148;2023-07-20T10:18:02;8.77;;;2.05;;
10605;SDS011;5350;42.698;23.148;2023-07-20T10:20:34;5.63;;;1.70;;
10605;SDS011;5350;42.698;23.148;2023-07-20T10:23:03;7.55;;;1.67;;
10605;SDS011;5350;42.698;23.148;2023-07-20T10:25:31;7.03;;;1.98;;
10605;SDS011;5350;42.698;23.148;2023-07-20T10:28:03;4.80;;;1.63;;
10605;SDS011;5350;42.698;23.148;2023-07-20T10:30:30;5.97;;;1.60;;
10605;SDS011;5350;42.698;23.148;2023-07-20T10:32:57;7.80;;;1.90;;
10605;SDS011;5350;42.698;23.148;2023-07-20T10:35:28;6.43;;;1.77;;
10605;SDS011;5350;42.698;23.148;2023-07-20T10:37:59;2.72;;;1.50;;
10605;SDS011;5350;42.698;23.148;2023-07-20T10:40:27;3.15;;;1.75;;
10605;SDS011;5350;42.698;23.148;2023-07-20T10:42:57;6.72;;;1.80;;
10605;SDS011;5350;42.698;23.148;2023-07-20T10:45:34;4.25;;;2.00;;
10605;SDS011;5350;42.698;23.148;2023-07-20T10:48:05;10.65;;;1.95;;
10605;SDS011;5350;42.698;23.148;2023-07-20T10:50:32;8.65;;;2.00;;
10605;SDS011;5350;42.698;23.148;2023-07-20T10:53:17;4.18;;;1.85;;
10605;SDS011;5350;42.698;23.148;2023-07-20T10:55:45;4.63;;;1.90;;
10605;SDS011;5350;42.698;23.148;2023-07-20T10:58:15;5.45;;;2.10;;
10605;SDS011;5350;42.698;23.148;2023-07-20T11:00:57;7.32;;;2.40;;
10605;SDS011;5350;42.698;23.148;2023-07-20T11:03:26;4.40;;;1.75;;
10605;SDS011;5350;42.698;23.148;2023-07-20T11:05:54;9.15;;;2.53;;
10605;SDS011;5350;42.698;23.148;2023-07-20T11:11:24;9.10;;;2.38;;
10605;SDS011;5350;42.698;23.148;2023-07-20T11:13:55;6.72;;;3.20;;
10605;SDS011;5350;42.698;23.148;2023-07-20T11:16:33;7.22;;;2.72;;
10605;SDS011;5350;42.698;23.148;2023-07-20T11:19:01;7.85;;;2.75;;
10605;SDS011;5350;42.698;23.148;2023-07-20T11:21:28;7.55;;;2.95;;
10605;SDS011;5350;42.698;23.148;2023-07-20T11:23:55;7.90;;;2.92;;
10605;SDS011;5350;42.698;23.148;2023-07-20T11:26:23;4.97;;;3.10;;
10605;SDS011;5350;42.698;23.148;2023-07-20T11:28:50;8.48;;;2.90;;
10605;SDS011;5350;42.698;23.148;2023-07-20T11:31:17;7.55;;;2.78;;
10605;SDS011;5350;42.698;23.148;2023-07-20T11:33:44;4.68;;;2.22;;
10605;SDS011;5350;42.698;23.148;2023-07-20T11:36:11;4.65;;;2.00;;
10605;SDS011;5350;42.698;23.148;2023-07-20T11:38:40;10.82;;;2.47;;
10605;SDS011;5350;42.698;23.148;2023-07-20T11:41:08;4.47;;;2.40;;
10605;SDS011;5350;42.698;23.148;2023-07-20T11:43:36;7.70;;;2.10;;
10605;SDS011;5350;42.698;23.148;2023-07-20T11:46:04;6.18;;;2.42;;
10605;SDS011;5350;42.698;23.148;2023-07-20T11:48:31;4.85;;;2.33;;
10605;SDS011;5350;42.698;23.148;2023-07-20T11:50:58;5.80;;;2.53;;
10605;SDS011;5350;42.698;23.148;2023-07-20T11:53:25;8.25;;;2.53;;
10605;SDS011;5350;42.698;23.148;2023-07-20T11:55:52;3.13;;;2.13;;
10605;SDS011;5350;42.698;23.148;2023-07-20T11:58:19;8.25;;;2.78;;
10605;SDS011;5350;42.698;23.148;2023-07-20T12:00:48;8.32;;;2.90;;
10605;SDS011;5350;42.698;23.148;2023-07-20T12:03:15;6.82;;;2.92;;
10605;SDS011;5350;42.698;23.148;2023-07-20T12:05:41;3.80;;;2.50;;
10605;SDS011;5350;42.698;23.148;2023-07-20T12:08:08;9.23;;;2.45;;
10605;SDS011;5350;42.698;23.148;2023-07-20T12:10:38;8.63;;;2.78;;
10605;SDS011;5350;42.698;23.148;2023-07-20T12:13:09;6.78;;;2.65;;
10605;SDS011;5350;42.698;23.148;2023-07-20T12:15:37;6.53;;;2.50;;
10605;SDS011;5350;42.698;23.148;2023-07-20T12:18:05;12.43;;;2.40;;
10605;SDS011;5350;42.698;23.148;2023-07-20T12:20:32;5.45;;;2.00;;
10605;SDS011;5350;42.698;23.148;2023-07-20T12:23:01;6.60;;;2.33;;
10605;SDS011;5350;42.698;23.148;2023-07-20T12:28:16;6.88;;;2.35;;
10605;SDS011;5350;42.698;23.148;2023-07-20T12:30:44;7.00;;;2.22;;
10605;SDS011;5350;42.698;23.148;2023-07-20T12:33:13;6.10;;;2.45;;
10605;SDS011;5350;42.698;23.148;2023-07-20T12:35:40;8.10;;;2.72;;
10605;SDS011;5350;42.698;23.148;2023-07-20T12:38:08;6.82;;;2.30;;
10605;SDS011;5350;42.698;23.148;2023-07-20T12:40:35;5.70;;;2.25;;
10605;SDS011;5350;42.698;23.148;2023-07-20T12:43:02;8.13;;;2.13;;
10605;SDS011;5350;42.698;23.148;2023-07-20T12:45:29;4.97;;;2.35;;
10605;SDS011;5350;42.698;23.148;2023-07-20T12:47:56;4.03;;;2.03;;
10605;SDS011;5350;42.698;23.148;2023-07-20T12:50:24;6.03;;;2.33;;
10605;SDS011;5350;42.698;23.148;2023-07-20T12:52:51;6.95;;;2.58;;
10605;SDS011;5350;42.698;23.148;2023-07-20T12:55:18;4.10;;;1.98;;
10605;SDS011;5350;42.698;23.148;2023-07-20T12:57:45;3.58;;;2.05;;
10605;SDS011;5350;42.698;23.148;2023-07-20T13:00:13;3.55;;;2.17;;
10605;SDS011;5350;42.698;23.148;2023-07-20T13:02:41;6.40;;;2.45;;
10605;SDS011;5350;42.698;23.148;2023-07-20T13:05:08;5.97;;;2.22;;
10605;SDS011;5350;42.698;23.148;2023-07-20T13:07:37;6.80;;;2.97;;
10605;SDS011;5350;42.698;23.148;2023-07-20T13:10:04;6.20;;;2.00;;
10605;SDS011;5350;42.698;23.148;2023-07-20T13:12:32;6.20;;;2.28;;
10605;SDS011;5350;42.698;23.148;2023-07-20T13:15:00;6.15;;;2.45;;
10605;SDS011;5350;42.698;23.148;2023-07-20T13:17:30;3.58;;;2.25;;
10605;SDS011;5350;42.698;23.148;2023-07-20T13:19:57;10.75;;;2.50;;
10605;SDS011;5350;42.698;23.148;2023-07-20T13:22:24;5.25;;;2.03;;
10605;SDS011;5350;42.698;23.148;2023-07-20T13:24:52;7.43;;;2.00;;
10605;SDS011;5350;42.698;23.148;2023-07-20T13:27:19;5.60;;;2.00;;
10605;SDS011;5350;42.698;23.148;2023-07-20T13:29:46;6.13;;;1.92;;
10605;SDS011;5350;42.698;23.148;2023-07-20T13:32:13;6.63;;;2.20;;
10605;SDS011;5350;42.698;23.148;2023-07-20T13:34:40;7.63;;;2.10;;
10605;SDS011;5350;42.698;23.148;2023-07-20T13:37:07;7.05;;;2.08;;
10605;SDS011;5350;42.698;23.148;2023-07-20T13:39:34;6.47;;;2.17;;
10605;SDS011;5350;42.698;23.148;2023-07-20T13:42:02;5.72;;;2.03;;
10605;SDS011;5350;42.698;23.148;2023-07-20T13:44:30;8.07;;;1.95;;
10605;SDS011;5350;42.698;23.148;2023-07-20T13:46:57;6.28;;;2.22;;
10605;SDS011;5350;42.698;23.148;2023-07-20T13:49:23;3.72;;;1.60;;
10605;SDS011;5350;42.698;23.148;2023-07-20T13:51:50;7.00;;;2.10;;
10605;SDS011;5350;42.698;23.148;2023-07-20T13:54:17;6.82;;;2.33;;
10605;SDS011;5350;42.698;23.148;2023-07-20T13:56:43;6.05;;;2.08;;
10605;SDS011;5350;42.698;23.148;2023-07-20T13:59:11;3.83;;;2.17;;
10605;SDS011;5350;42.698;23.148;2023-07-20T14:01:38;8.63;;;2.30;;
10605;SDS011;5350;42.698;23.148;2023-07-20T14:04:05;5.38;;;1.95;;
10605;SDS011;5350;42.698;23.148;2023-07-20T14:06:32;6.20;;;2.30;;
10605;SDS011;5350;42.698;23.148;2023-07-20T14:08:59;7.65;;;2.13;;
10605;SDS011;5350;42.698;23.148;2023-07-20T14:11:26;5.90;;;1.70;;
10605;SDS011;5350;42.698;23.148;2023-07-20T14:13:53;5.40;;;1.80;;
10605;SDS011;5350;42.698;23.148;2023-07-20T14:16:21;5.22;;;1.70;;
10605;SDS011;5350;42.698;23.148;2023-07-20T14:18:48;5.78;;;1.98;;
10605;SDS011;5350;42.698;23.148;2023-07-20T14:21:15;6.20;;;1.90;;
10605;SDS011;5350;42.698;23.148;2023-07-20T14:23:42;6.40;;;1.98;;
10605;SDS011;5350;42.698;23.148;2023-07-20T14:26:11;7.28;;;2.03;;
10605;SDS011;5350;42.698;23.148;2023-07-20T14:28:38;6.88;;;2.22;;
10605;SDS011;5350;42.698;23.148;2023-07-20T14:31:05;5.65;;;1.90;;
10605;SDS011;5350;42.698;23.148;2023-07-20T14:33:33;6.63;;;2.00;;
10605;SDS011;5350;42.698;23.148;2023-07-20T14:36:00;3.83;;;1.70;;
10605;SDS011;5350;42.698;23.148;2023-07-20T14:38:26;8.70;;;2.10;;
10605;SDS011;5350;42.698;23.148;2023-07-20T14:40:53;4.18;;;1.63;;
10605;SDS011;5350;42.698;23.148;2023-07-20T14:43:20;9.75;;;2.25;;
10605;SDS011;5350;42.698;23.148;2023-07-20T14:45:47;5.45;;;2.13;;
10605;SDS011;5350;42.698;23.148;2023-07-20T14:48:13;6.22;;;2.40;;
10605;SDS011;5350;42.698;23.148;2023-07-20T14:50:41;9.07;;;2.33;;
10605;SDS011;5350;42.698;23.148;2023-07-20T14:53:10;4.20;;;2.10;;
10605;SDS011;5350;42.698;23.148;2023-07-20T14:55:37;7.35;;;2.22;;
10605;SDS011;5350;42.698;23.148;2023-07-20T14:58:04;4.03;;;1.90;;